F/V Galibier — PBIB — position and weather

sailwx.info

Track history (hours):
 
Tides and Currents Weather Stations Pressure Air Temp Water Temp Dewpoint Dewpoint Depression Visibility Wind Speed Wind Dir Waves Ship Positions

F/V Galibier

Last reported at 2016-May-24 15:15 UTC. Time now 2016-May-25 22:43 UTC.
Position N 52°33' E 004°10'.

Length 35 m.

MMSI: 244630637.

Date/timePositionNaut miles runAvg speedWind from/ knotsBaromVisibWave heightAir tempDewpointWater temp
2016-May-24 15:15N 52°33' E 004°10'1 1.6
2016-May-24 14:33N 52°33' E 004°11'1 1.1
2016-May-24 13:33N 52°32' E 004°12'1 0.9
2016-May-24 12:29N 52°33' E 004°13'7 7.6
2016-May-24 11:33N 52°28' E 004°05'1 1.4
2016-May-24 10:33N 52°29' E 004°07'2 1.7
2016-May-24 09:32N 52°28' E 004°04'1 1.1
2016-May-24 08:32N 52°27' E 004°03'1 1.2
2016-May-24 07:32N 52°28' E 004°02'90 9.6
2016-May-23 22:11N 51°30' E 002°12'5 8.2
2016-May-23 21:33N 51°31' E 002°03'7 6.8
2016-May-23 20:33N 51°28' E 001°53'6 5.5
2016-May-23 19:33N 51°23' E 001°50'1 1.1
2016-May-23 18:33N 51°24' E 001°51'1 1.2
2016-May-23 17:34N 51°23' E 001°51'4 4.0
2016-May-23 16:33N 51°20' E 001°55'9 9.3
2016-May-23 15:33N 51°10' E 001°54'2 2.1
2016-May-23 14:33N 51°09' E 001°52'2 1.5
2016-May-23 13:33N 51°08' E 001°53'2 1.8
2016-May-23 12:34N 51°08' E 001°55'4 3.7
2016-May-23 11:33N 51°11' E 001°59'1 1.2
2016-May-23 10:33N 51°12' E 002°00'2 1.8
2016-May-23 09:33N 51°13' E 002°02'6 6.2
2016-May-23 08:32N 51°13' E 002°12'1410.8
2016-May-23 07:13N 51°23' E 002°30'811.1
2016-May-23 06:32N 51°24' E 002°42'45 8.9
2016-May-23 01:31N 51°49' E 003°42'9 9.0
2016-May-23 00:33N 51°51' E 003°55'5 4.7
2016-May-22 23:33N 51°49' E 004°02'0 0.2
2016-May-22 22:33N 51°49' E 004°03'0 0.0
2016-May-22 21:34N 51°49' E 004°03'0 0.0
2016-May-22 20:33N 51°49' E 004°03'0 0.0
2016-May-22 19:33N 51°49' E 004°03'0 0.0
2016-May-22 18:33N 51°49' E 004°03'0 0.0
2016-May-22 17:33N 51°49' E 004°03'0 0.0
2016-May-22 16:33N 51°49' E 004°03'0 0.0
2016-May-22 15:33N 51°49' E 004°03'0 0.0
2016-May-22 14:33N 51°49' E 004°03'0 0.0
2016-May-22 13:33N 51°49' E 004°03'0 0.0
2016-May-22 12:33N 51°49' E 004°03'0 0.0
2016-May-22 11:33N 51°49' E 004°03'0 0.0
2016-May-22 10:33N 51°49' E 004°03'0 0.0
2016-May-22 09:33N 51°49' E 004°03'0 0.0
2016-May-22 08:33N 51°49' E 004°03'0 0.0
2016-May-22 07:33N 51°49' E 004°03'0 0.0
2016-May-22 06:33N 51°49' E 004°03'0 0.0
2016-May-22 05:33N 51°49' E 004°03'0 0.0
2016-May-22 04:33N 51°49' E 004°03'0 0.0
2016-May-22 03:33N 51°49' E 004°03'0 0.0
2016-May-22 02:33N 51°49' E 004°03'0 0.0
2016-May-22 01:33N 51°49' E 004°03'0 0.0
2016-May-22 00:33N 51°49' E 004°03'0 0.0
2016-May-21 23:33N 51°49' E 004°03'0 0.0
2016-May-21 22:33N 51°49' E 004°03'0 0.0
2016-May-21 21:33N 51°49' E 004°03'0 0.0
2016-May-21 20:33N 51°49' E 004°03'0 0.0
2016-May-21 19:33N 51°49' E 004°03'0 0.0
2016-May-21 18:33N 51°49' E 004°03'0 0.0
2016-May-21 17:33N 51°49' E 004°03'0 0.0
2016-May-21 16:33N 51°49' E 004°03'0 0.0
2016-May-21 15:33N 51°49' E 004°03'0 0.0
2016-May-21 14:33N 51°49' E 004°03'0 0.0
2016-May-21 13:33N 51°49' E 004°03'0 0.0
2016-May-21 12:33N 51°49' E 004°03'0 0.0
2016-May-21 11:33N 51°49' E 004°03'0 0.0
2016-May-21 10:33N 51°49' E 004°03'0 0.0
2016-May-21 09:34N 51°49' E 004°03'0 0.0
2016-May-21 08:33N 51°49' E 004°03'0 0.0
2016-May-21 07:33N 51°49' E 004°03'0 0.0
2016-May-21 06:33N 51°49' E 004°03'0 0.0
2016-May-21 05:33N 51°49' E 004°03'0 0.0
2016-May-21 04:33N 51°49' E 004°03'0 0.0
2016-May-21 03:33N 51°49' E 004°03'0 0.0
2016-May-21 02:33N 51°49' E 004°03'0 0.0
2016-May-21 01:33N 51°49' E 004°03'0 0.0
2016-May-21 00:33N 51°49' E 004°03'0 0.0
2016-May-20 23:33N 51°49' E 004°03'0 0.0
2016-May-20 22:33N 51°49' E 004°03'0 0.0
2016-May-20 21:33N 51°49' E 004°03'0 0.0
2016-May-20 20:33N 51°49' E 004°03'0 0.0
2016-May-20 19:33N 51°49' E 004°03'0 0.0
2016-May-20 18:33N 51°49' E 004°03'0 0.0
2016-May-20 17:33N 51°49' E 004°03'0 0.0
2016-May-20 16:33N 51°49' E 004°03'0 0.0
2016-May-20 15:33N 51°49' E 004°03'0 0.0
2016-May-20 14:33N 51°49' E 004°03'0 0.0
2016-May-20 13:33N 51°49' E 004°03'0 0.0
2016-May-20 12:33N 51°49' E 004°03'0 0.0
2016-May-20 11:33N 51°49' E 004°03'0 0.0
2016-May-20 10:33N 51°49' E 004°03'0 0.0
2016-May-20 09:33N 51°49' E 004°03'0 0.0
2016-May-20 08:33N 51°49' E 004°03'0 0.0
2016-May-20 07:33N 51°49' E 004°03'0 0.0
2016-May-20 06:33N 51°49' E 004°03'0 0.0
2016-May-20 05:33N 51°49' E 004°03'0 0.0
2016-May-20 04:33N 51°49' E 004°03'0 0.0
2016-May-20 03:33N 51°49' E 004°03'0 0.0
2016-May-20 02:33N 51°49' E 004°03'0 0.0
2016-May-20 01:33N 51°49' E 004°03'0 0.4
2016-May-20 00:33N 51°49' E 004°02'0 0.0
2016-May-19 23:33N 51°49' E 004°02'5 5.5
2016-May-19 22:33N 51°51' E 003°54'2 2.4
2016-May-19 21:33N 51°54' E 003°53'7 7.0
2016-May-19 20:33N 52°01' E 003°54'10 9.5
2016-May-19 19:33N 52°10' E 003°57'10 9.6
2016-May-19 18:33N 52°19' E 003°58'1110.6
2016-May-19 17:33N 52°30' E 003°59'20 1.3
2016-May-19 02:31N 52°49' E 004°08'1 0.7
2016-May-19 01:17N 52°50' E 004°08'25 0.9
2016-May-17 21:32N 52°57' E 004°47'0 0.4
2016-May-17 20:32N 52°58' E 004°47'25 0.6
2016-May-16 01:12N 52°41' E 004°15'710.4
2016-May-16 00:34N 52°34' E 004°17'1110.9
2016-May-15 23:33N 52°23' E 004°17'1110.9
2016-May-15 22:33N 52°12' E 004°16'6 6.3
2016-May-15 21:33N 52°06' E 004°16'0 0.0
2016-May-15 20:33N 52°06' E 004°16'0 0.0
2016-May-15 19:34N 52°06' E 004°16'0 0.0
2016-May-15 18:34N 52°06' E 004°16'0 0.0
2016-May-15 17:33N 52°06' E 004°16'0 0.0
2016-May-15 16:33N 52°06' E 004°16'0 0.0
2016-May-15 15:33N 52°06' E 004°16'0 0.0
2016-May-15 14:34N 52°06' E 004°16'0 0.0
2016-May-15 13:34N 52°06' E 004°16'0 0.0
2016-May-15 12:34N 52°06' E 004°16'0 0.0
2016-May-15 11:34N 52°06' E 004°16'0 0.0
2016-May-15 10:34N 52°06' E 004°16'0 0.0
2016-May-15 09:34N 52°06' E 004°16'0 0.0
2016-May-15 08:34N 52°06' E 004°16'0 0.0
2016-May-15 07:34N 52°06' E 004°16'0 0.0
2016-May-15 06:34N 52°06' E 004°16'0 0.0
2016-May-15 05:33N 52°06' E 004°16'0 0.0
2016-May-15 04:34N 52°06' E 004°16'0 0.0
2016-May-15 03:34N 52°06' E 004°16'0 0.0
2016-May-15 02:33N 52°06' E 004°16'0 0.0
2016-May-15 01:33N 52°06' E 004°16'0 0.0
2016-May-15 00:34N 52°06' E 004°16'0 0.0
2016-May-14 23:34N 52°06' E 004°16'0 0.0
2016-May-14 22:34N 52°06' E 004°16'0 0.0
2016-May-14 21:34N 52°06' E 004°16'0 0.0
2016-May-14 20:33N 52°06' E 004°16'0 0.0
2016-May-14 19:33N 52°06' E 004°16'0 0.0
2016-May-14 18:34N 52°06' E 004°16'0 0.0
2016-May-14 17:33N 52°06' E 004°16'0 0.0
2016-May-14 16:34N 52°06' E 004°16'0 0.0
2016-May-14 15:34N 52°06' E 004°16'  
Track history (hours):
 
Tides and Currents Weather Stations Pressure Air Temp Water Temp Dewpoint Dewpoint Depression Visibility Wind Speed Wind Dir Waves Ship Positions

F/V Galibier

Last reported at 2016-May-24 15:15 UTC. Time now 2016-May-25 22:43 UTC.
Position N 52°33' E 004°10'.

Length 35 m.

MMSI: 244630637.

Date/timePositionNaut miles runAvg speedWind from/ knotsBaromVisibWave heightAir tempDewpointWater temp
2016-May-24 15:15N 52°33' E 004°10'1 1.6
2016-May-24 14:33N 52°33' E 004°11'1 1.1
2016-May-24 13:33N 52°32' E 004°12'1 0.9
2016-May-24 12:29N 52°33' E 004°13'7 7.6
2016-May-24 11:33N 52°28' E 004°05'1 1.4
2016-May-24 10:33N 52°29' E 004°07'2 1.7
2016-May-24 09:32N 52°28' E 004°04'1 1.1
2016-May-24 08:32N 52°27' E 004°03'1 1.2
2016-May-24 07:32N 52°28' E 004°02'90 9.6
2016-May-23 22:11N 51°30' E 002°12'5 8.2
2016-May-23 21:33N 51°31' E 002°03'7 6.8
2016-May-23 20:33N 51°28' E 001°53'6 5.5
2016-May-23 19:33N 51°23' E 001°50'1 1.1
2016-May-23 18:33N 51°24' E 001°51'1 1.2
2016-May-23 17:34N 51°23' E 001°51'4 4.0
2016-May-23 16:33N 51°20' E 001°55'9 9.3
2016-May-23 15:33N 51°10' E 001°54'2 2.1
2016-May-23 14:33N 51°09' E 001°52'2 1.5
2016-May-23 13:33N 51°08' E 001°53'2 1.8
2016-May-23 12:34N 51°08' E 001°55'4 3.7
2016-May-23 11:33N 51°11' E 001°59'1 1.2
2016-May-23 10:33N 51°12' E 002°00'2 1.8
2016-May-23 09:33N 51°13' E 002°02'6 6.2
2016-May-23 08:32N 51°13' E 002°12'1410.8
2016-May-23 07:13N 51°23' E 002°30'811.1
2016-May-23 06:32N 51°24' E 002°42'45 8.9
2016-May-23 01:31N 51°49' E 003°42'9 9.0
2016-May-23 00:33N 51°51' E 003°55'5 4.7
2016-May-22 23:33N 51°49' E 004°02'0 0.2
2016-May-22 22:33N 51°49' E 004°03'0 0.0
2016-May-22 21:34N 51°49' E 004°03'0 0.0
2016-May-22 20:33N 51°49' E 004°03'0 0.0
2016-May-22 19:33N 51°49' E 004°03'0 0.0
2016-May-22 18:33N 51°49' E 004°03'0 0.0
2016-May-22 17:33N 51°49' E 004°03'0 0.0
2016-May-22 16:33N 51°49' E 004°03'0 0.0
2016-May-22 15:33N 51°49' E 004°03'0 0.0
2016-May-22 14:33N 51°49' E 004°03'0 0.0
2016-May-22 13:33N 51°49' E 004°03'0 0.0
2016-May-22 12:33N 51°49' E 004°03'0 0.0
2016-May-22 11:33N 51°49' E 004°03'0 0.0
2016-May-22 10:33N 51°49' E 004°03'0 0.0
2016-May-22 09:33N 51°49' E 004°03'0 0.0
2016-May-22 08:33N 51°49' E 004°03'0 0.0
2016-May-22 07:33N 51°49' E 004°03'0 0.0
2016-May-22 06:33N 51°49' E 004°03'0 0.0
2016-May-22 05:33N 51°49' E 004°03'0 0.0
2016-May-22 04:33N 51°49' E 004°03'0 0.0
2016-May-22 03:33N 51°49' E 004°03'0 0.0
2016-May-22 02:33N 51°49' E 004°03'0 0.0
2016-May-22 01:33N 51°49' E 004°03'0 0.0
2016-May-22 00:33N 51°49' E 004°03'0 0.0
2016-May-21 23:33N 51°49' E 004°03'0 0.0
2016-May-21 22:33N 51°49' E 004°03'0 0.0
2016-May-21 21:33N 51°49' E 004°03'0 0.0
2016-May-21 20:33N 51°49' E 004°03'0 0.0
2016-May-21 19:33N 51°49' E 004°03'0 0.0
2016-May-21 18:33N 51°49' E 004°03'0 0.0
2016-May-21 17:33N 51°49' E 004°03'0 0.0
2016-May-21 16:33N 51°49' E 004°03'0 0.0
2016-May-21 15:33N 51°49' E 004°03'0 0.0
2016-May-21 14:33N 51°49' E 004°03'0 0.0
2016-May-21 13:33N 51°49' E 004°03'0 0.0
2016-May-21 12:33N 51°49' E 004°03'0 0.0
2016-May-21 11:33N 51°49' E 004°03'0 0.0
2016-May-21 10:33N 51°49' E 004°03'0 0.0
2016-May-21 09:34N 51°49' E 004°03'0 0.0
2016-May-21 08:33N 51°49' E 004°03'0 0.0
2016-May-21 07:33N 51°49' E 004°03'0 0.0
2016-May-21 06:33N 51°49' E 004°03'0 0.0
2016-May-21 05:33N 51°49' E 004°03'0 0.0
2016-May-21 04:33N 51°49' E 004°03'0 0.0
2016-May-21 03:33N 51°49' E 004°03'0 0.0
2016-May-21 02:33N 51°49' E 004°03'0 0.0
2016-May-21 01:33N 51°49' E 004°03'0 0.0
2016-May-21 00:33N 51°49' E 004°03'0 0.0
2016-May-20 23:33N 51°49' E 004°03'0 0.0
2016-May-20 22:33N 51°49' E 004°03'0 0.0
2016-May-20 21:33N 51°49' E 004°03'0 0.0
2016-May-20 20:33N 51°49' E 004°03'0 0.0
2016-May-20 19:33N 51°49' E 004°03'0 0.0
2016-May-20 18:33N 51°49' E 004°03'0 0.0
2016-May-20 17:33N 51°49' E 004°03'0 0.0
2016-May-20 16:33N 51°49' E 004°03'0 0.0
2016-May-20 15:33N 51°49' E 004°03'0 0.0
2016-May-20 14:33N 51°49' E 004°03'0 0.0
2016-May-20 13:33N 51°49' E 004°03'0 0.0
2016-May-20 12:33N 51°49' E 004°03'0 0.0
2016-May-20 11:33N 51°49' E 004°03'0 0.0
2016-May-20 10:33N 51°49' E 004°03'0 0.0
2016-May-20 09:33N 51°49' E 004°03'0 0.0
2016-May-20 08:33N 51°49' E 004°03'0 0.0
2016-May-20 07:33N 51°49' E 004°03'0 0.0
2016-May-20 06:33N 51°49' E 004°03'0 0.0
2016-May-20 05:33N 51°49' E 004°03'0 0.0
2016-May-20 04:33N 51°49' E 004°03'0 0.0
2016-May-20 03:33N 51°49' E 004°03'0 0.0
2016-May-20 02:33N 51°49' E 004°03'0 0.0
2016-May-20 01:33N 51°49' E 004°03'0 0.4
2016-May-20 00:33N 51°49' E 004°02'0 0.0
2016-May-19 23:33N 51°49' E 004°02'5 5.5
2016-May-19 22:33N 51°51' E 003°54'2 2.4
2016-May-19 21:33N 51°54' E 003°53'7 7.0
2016-May-19 20:33N 52°01' E 003°54'10 9.5
2016-May-19 19:33N 52°10' E 003°57'10 9.6
2016-May-19 18:33N 52°19' E 003°58'1110.6
2016-May-19 17:33N 52°30' E 003°59'20 1.3
2016-May-19 02:31N 52°49' E 004°08'1 0.7
2016-May-19 01:17N 52°50' E 004°08'25 0.9
2016-May-17 21:32N 52°57' E 004°47'0 0.4
2016-May-17 20:32N 52°58' E 004°47'25 0.6
2016-May-16 01:12N 52°41' E 004°15'710.4
2016-May-16 00:34N 52°34' E 004°17'1110.9
2016-May-15 23:33N 52°23' E 004°17'1110.9
2016-May-15 22:33N 52°12' E 004°16'6 6.3
2016-May-15 21:33N 52°06' E 004°16'0 0.0
2016-May-15 20:33N 52°06' E 004°16'0 0.0
2016-May-15 19:34N 52°06' E 004°16'0 0.0
2016-May-15 18:34N 52°06' E 004°16'0 0.0
2016-May-15 17:33N 52°06' E 004°16'0 0.0
2016-May-15 16:33N 52°06' E 004°16'0 0.0
2016-May-15 15:33N 52°06' E 004°16'0 0.0
2016-May-15 14:34N 52°06' E 004°16'0 0.0
2016-May-15 13:34N 52°06' E 004°16'0 0.0
2016-May-15 12:34N 52°06' E 004°16'0 0.0
2016-May-15 11:34N 52°06' E 004°16'0 0.0
2016-May-15 10:34N 52°06' E 004°16'0 0.0
2016-May-15 09:34N 52°06' E 004°16'0 0.0
2016-May-15 08:34N 52°06' E 004°16'0 0.0
2016-May-15 07:34N 52°06' E 004°16'0 0.0
2016-May-15 06:34N 52°06' E 004°16'0 0.0
2016-May-15 05:33N 52°06' E 004°16'0 0.0
2016-May-15 04:34N 52°06' E 004°16'0 0.0
2016-May-15 03:34N 52°06' E 004°16'0 0.0
2016-May-15 02:33N 52°06' E 004°16'0 0.0
2016-May-15 01:33N 52°06' E 004°16'0 0.0
2016-May-15 00:34N 52°06' E 004°16'0 0.0
2016-May-14 23:34N 52°06' E 004°16'0 0.0
2016-May-14 22:34N 52°06' E 004°16'0 0.0
2016-May-14 21:34N 52°06' E 004°16'0 0.0
2016-May-14 20:33N 52°06' E 004°16'0 0.0
2016-May-14 19:33N 52°06' E 004°16'0 0.0
2016-May-14 18:34N 52°06' E 004°16'0 0.0
2016-May-14 17:33N 52°06' E 004°16'0 0.0
2016-May-14 16:34N 52°06' E 004°16'0 0.0
2016-May-14 15:34N 52°06' E 004°16'  

Dump ship's entire track history